createdAt,value
2023-05-25T00:01:04.728Z,100722.75
2023-05-25T00:03:36.138Z,100715.06
2023-05-25T00:06:06.101Z,100721.97
2023-05-25T00:08:40.436Z,100725.97
2023-05-25T00:11:11.142Z,100725.19
2023-05-25T00:13:39.682Z,100732.91
2023-05-25T00:16:13.572Z,100725.97
2023-05-25T00:18:43.590Z,100733.28
2023-05-25T00:21:21.054Z,100734.47
2023-05-25T00:23:53.170Z,100734.91
2023-05-25T00:26:25.968Z,100746.28
2023-05-25T00:28:53.571Z,100761.72
2023-05-25T00:31:24.239Z,100762.94
2023-05-25T00:33:57.058Z,100768.59
2023-05-25T00:36:27.802Z,100773.06
2023-05-25T00:38:57.614Z,100772.28
2023-05-25T00:41:29.030Z,100778.75
2023-05-25T00:44:00.709Z,100785.28
2023-05-25T00:46:29.079Z,100787.25
2023-05-25T00:48:59.126Z,100786.88
2023-05-25T00:51:33.095Z,100791.72
2023-05-25T00:54:06.177Z,100799.91
2023-05-25T00:56:40.533Z,100812.91
2023-05-25T00:59:17.356Z,100808.81
2023-05-25T01:01:47.484Z,100811.22
2023-05-25T01:04:22.238Z,100809.19
2023-05-25T01:06:54.543Z,100814.81
2023-05-25T04:18:20.576Z,100918.59
2023-05-25T04:20:57.317Z,100914.09
2023-05-25T04:23:29.966Z,100922.25
2023-05-25T04:26:03.509Z,100918.19
2023-05-25T04:28:33.430Z,100916.56
2023-05-25T04:31:25.023Z,100916.16
2023-05-25T04:34:09.699Z,100910.50
2023-05-25T04:36:45.498Z,100925.50
2023-05-25T04:39:15.943Z,100904.00
2023-05-25T04:41:53.026Z,100918.19
2023-05-25T04:44:20.729Z,100924.66
2023-05-25T04:46:55.583Z,100932.34
2023-05-25T04:49:45.885Z,100928.72
2023-05-25T04:52:14.870Z,100925.03
2023-05-25T04:54:46.869Z,100928.25
2023-05-25T04:57:22.375Z,100923.84
2023-05-25T04:59:52.920Z,100926.66
2023-05-25T05:02:23.327Z,100946.53
2023-05-25T05:04:54.000Z,100942.47
2023-05-25T05:07:29.116Z,100944.50
2023-05-25T05:09:56.927Z,100942.47
2023-05-25T05:12:27.853Z,100954.25
2023-05-25T05:15:00.029Z,100959.50
2023-05-25T05:17:30.658Z,100962.78
2023-05-25T05:20:01.126Z,100972.94
2023-05-25T05:22:33.479Z,100966.44
2023-05-25T05:25:04.795Z,100980.59
2023-05-25T05:27:35.080Z,100990.72
2023-05-25T05:30:10.042Z,100991.13
2023-05-25T05:32:46.533Z,100994.41
2023-05-25T05:35:17.235Z,101006.56
2023-05-25T05:37:54.641Z,101002.09
2023-05-25T05:40:27.798Z,101002.94
2023-05-25T05:42:58.038Z,100997.31
2023-05-25T05:45:31.623Z,100998.94
2023-05-25T05:48:04.914Z,101006.22
2023-05-25T05:50:44.778Z,101006.66
2023-05-25T05:53:14.692Z,101013.16
2023-05-25T05:55:56.375Z,101013.56
2023-05-25T05:58:33.475Z,101015.19
2023-05-25T06:01:04.708Z,101020.84
2023-05-25T06:03:32.756Z,101024.91
2023-05-25T06:06:06.735Z,101028.94
2023-05-25T06:08:41.166Z,101029.34
2023-05-25T06:11:15.537Z,101037.47
2023-05-25T06:13:48.628Z,101044.38
2023-05-25T06:16:20.029Z,101046.00
2023-05-25T06:18:54.344Z,101047.19
2023-05-25T06:21:22.278Z,101055.69
2023-05-25T06:23:58.946Z,101052.84
2023-05-25T06:26:32.765Z,101050.38
2023-05-25T06:29:06.609Z,101047.84
2023-05-25T06:31:37.556Z,101051.47
2023-05-25T06:34:11.299Z,101051.56
2023-05-25T06:36:50.584Z,101056.44
2023-05-25T06:39:24.177Z,101061.31
2023-05-25T06:42:02.817Z,101061.34
2023-05-25T06:44:43.673Z,101073.09
2023-05-25T06:47:17.079Z,101070.25
2023-05-25T06:49:48.115Z,101077.97
2023-05-25T06:52:31.459Z,101071.81
2023-05-25T06:55:00.244Z,101080.34
2023-05-25T06:57:30.476Z,101075.84
2023-05-25T07:00:00.592Z,101075.34
2023-05-25T07:02:31.127Z,101077.81
2023-05-25T07:05:05.875Z,101081.38
2023-05-25T07:07:39.451Z,101086.22
2023-05-25T07:10:11.776Z,101078.81
2023-05-25T07:12:39.745Z,101079.69
2023-05-25T07:15:08.412Z,101074.34
2023-05-25T07:17:45.301Z,101076.31
2023-05-25T07:20:24.668Z,101079.84
2023-05-25T07:23:01.730Z,101076.91
2023-05-25T07:25:37.496Z,101081.72
2023-05-25T07:28:11.782Z,101080.06
2023-05-25T07:30:41.487Z,101088.19
2023-05-25T07:33:10.242Z,101087.78
2023-05-25T07:35:40.883Z,101088.34
2023-05-25T07:38:09.396Z,101105.13
2023-05-25T07:40:42.377Z,101107.75
2023-05-25T07:43:15.065Z,101106.03
2023-05-25T07:45:46.599Z,101121.84
2023-05-25T07:48:17.285Z,101108.72
2023-05-25T07:50:55.933Z,101116.00
2023-05-25T07:53:26.826Z,101114.34
2023-05-25T07:55:57.762Z,101113.78
2023-05-25T07:58:31.367Z,101112.25
2023-05-25T08:01:02.174Z,101129.19
2023-05-25T08:03:47.967Z,101125.56
2023-05-25T08:06:18.084Z,101133.75
2023-05-25T08:08:52.155Z,101122.00
2023-05-25T08:11:26.863Z,101133.34
2023-05-25T08:13:55.024Z,101136.25
2023-05-25T08:16:23.017Z,101131.81
2023-05-25T08:18:53.726Z,101137.91
2023-05-25T08:21:26.613Z,101143.63
2023-05-25T08:24:08.537Z,101153.34
2023-05-25T08:26:53.183Z,101148.88
2023-05-25T08:29:31.381Z,101138.28
2023-05-25T08:32:07.409Z,101154.94
2023-05-25T08:34:40.796Z,101148.81
2023-05-25T08:37:14.759Z,101165.47
2023-05-25T08:39:47.832Z,101165.13
2023-05-25T08:42:15.969Z,101171.25
2023-05-25T08:44:49.775Z,101169.16
2023-05-25T08:47:25.241Z,101174.91
2023-05-25T08:50:02.110Z,101174.91
2023-05-25T08:52:33.547Z,101179.38
2023-05-25T08:55:10.174Z,101177.34
2023-05-25T08:58:07.441Z,101182.22
2023-05-25T09:00:45.909Z,101182.19
2023-05-25T09:03:18.586Z,101184.19
2023-05-25T09:05:54.749Z,101181.38
2023-05-25T09:08:30.228Z,101191.50
2023-05-25T09:10:58.797Z,101190.75
2023-05-25T09:13:26.899Z,101189.13
2023-05-25T09:16:02.494Z,101186.25
2023-05-25T09:18:36.040Z,101186.69
2023-05-25T09:21:06.450Z,101194.00
2023-05-25T09:23:41.080Z,101188.72
2023-05-25T09:26:15.905Z,101189.94
2023-05-25T09:28:53.609Z,101195.19
2023-05-25T09:31:28.760Z,101197.19
2023-05-25T09:34:04.066Z,101195.94
2023-05-25T09:36:41.597Z,101197.56
2023-05-25T09:39:16.375Z,101197.13
2023-05-25T09:41:52.581Z,101197.50
2023-05-25T09:44:26.915Z,101209.28
2023-05-25T09:46:57.977Z,101217.41
2023-05-25T09:49:29.207Z,101212.94
2023-05-25T09:52:06.066Z,101202.44
2023-05-25T09:54:47.040Z,101197.59
2023-05-25T09:57:27.244Z,101199.25
2023-05-25T10:00:00.717Z,101206.19
2023-05-25T10:02:35.156Z,101202.91
2023-05-25T10:05:07.596Z,101215.06
2023-05-25T10:07:40.727Z,101198.44
2023-05-25T10:10:16.248Z,101204.13
2023-05-25T10:12:50.149Z,101214.66
2023-05-25T10:15:27.354Z,101213.47
2023-05-25T10:18:02.090Z,101213.47
2023-05-25T10:20:35.073Z,101207.38
2023-05-25T10:23:12.797Z,101205.34
2023-05-25T10:25:50.671Z,101209.81
2023-05-25T10:28:27.527Z,101210.22
2023-05-25T10:31:02.083Z,101195.19
2023-05-25T10:33:36.311Z,101189.13
2023-05-25T10:38:44.853Z,101196.75
2023-05-25T10:41:16.320Z,101185.75
2023-05-25T10:43:53.888Z,101190.19
2023-05-25T10:46:22.430Z,101191.13
2023-05-25T10:49:00.769Z,101187.06
2023-05-25T10:51:41.958Z,101180.22
2023-05-25T10:54:18.998Z,101178.56
2023-05-25T10:57:14.402Z,101191.97
2023-05-25T10:59:52.336Z,101184.66
2023-05-25T11:02:26.157Z,101179.78
2023-05-25T11:05:19.762Z,101177.38
2023-05-25T11:08:00.764Z,101175.75
2023-05-25T11:10:53.178Z,101177.38
2023-05-25T11:13:32.559Z,101170.06
2023-05-25T11:16:22.132Z,101183.06
2023-05-25T11:18:59.191Z,101174.13
2023-05-25T11:21:32.893Z,101157.91
2023-05-25T11:24:03.045Z,101165.22
2023-05-25T11:26:52.394Z,101154.63
2023-05-25T11:29:25.434Z,101148.94
2023-05-25T11:31:56.767Z,101153.41
2023-05-25T11:34:29.185Z,101150.56
2023-05-25T11:37:02.044Z,101151.78
2023-05-25T11:39:41.002Z,101154.22
2023-05-25T11:42:15.261Z,101159.94
2023-05-25T11:44:46.441Z,101151.81
2023-05-25T11:47:23.323Z,101146.16
2023-05-25T11:49:58.697Z,101146.56
2023-05-25T11:52:29.587Z,101154.28
2023-05-25T11:54:57.710Z,101151.84
2023-05-25T11:57:31.714Z,101148.13
2023-05-25T12:00:07.305Z,101144.41
2023-05-25T12:02:43.276Z,101136.59
2023-05-25T12:05:12.008Z,101131.78
2023-05-25T12:07:50.840Z,101131.31
2023-05-25T12:10:21.496Z,101135.28
2023-05-25T12:12:58.520Z,101121.94
2023-05-25T12:15:31.691Z,101116.59
2023-05-25T12:18:02.801Z,101118.56
2023-05-25T12:20:38.855Z,101115.75
2023-05-25T12:23:16.689Z,101110.47
2023-05-25T12:25:51.775Z,101108.53
2023-05-25T12:28:29.015Z,101105.66
2023-05-25T12:31:23.450Z,101104.09
2023-05-25T12:34:12.293Z,101100.91
2023-05-25T12:36:52.826Z,101094.81
2023-05-25T12:39:29.608Z,101097.72
2023-05-25T12:42:13.464Z,101101.75
2023-05-25T12:44:48.815Z,101092.44
2023-05-25T12:47:23.461Z,101089.19
2023-05-25T12:50:12.791Z,101081.50
2023-05-25T12:52:46.563Z,101082.72
2023-05-25T12:55:27.485Z,101087.97
2023-05-25T12:58:04.834Z,101099.75
2023-05-25T13:00:41.140Z,101086.00
2023-05-25T13:03:17.433Z,101089.19
2023-05-25T13:05:52.055Z,101094.03
2023-05-25T13:08:25.800Z,101083.06
2023-05-25T13:10:56.365Z,101093.22
2023-05-25T13:13:33.061Z,101094.44
2023-05-25T13:16:04.748Z,101085.91
2023-05-25T13:18:40.505Z,101079.88
2023-05-25T13:21:12.605Z,101074.13
2023-05-25T13:23:43.534Z,101070.47
2023-05-25T13:26:12.664Z,101063.22
2023-05-25T13:28:43.011Z,101068.06
2023-05-25T13:31:18.601Z,101069.31
2023-05-25T13:33:58.697Z,101070.47
2023-05-25T13:36:29.655Z,101058.31
2023-05-25T13:39:01.801Z,101062.72
2023-05-25T13:41:32.476Z,101062.78
2023-05-25T13:44:11.509Z,101056.59
2023-05-25T13:46:47.496Z,101050.00
2023-05-25T13:49:26.357Z,101058.22
2023-05-25T13:51:57.982Z,101052.91
2023-05-25T13:54:34.243Z,101050.03
2023-05-25T13:57:08.976Z,101050.41
2023-05-25T13:59:43.160Z,101053.66
2023-05-25T14:02:16.317Z,101044.69
2023-05-25T14:04:46.185Z,101046.19
2023-05-25T14:07:24.338Z,101051.47
2023-05-25T14:09:54.912Z,101041.75
2023-05-25T14:12:32.624Z,101043.00
2023-05-25T14:15:13.573Z,101044.22
2023-05-25T14:17:49.780Z,101041.34
2023-05-25T14:20:26.353Z,101040.50
2023-05-25T14:23:02.682Z,101037.94
2023-05-25T14:25:38.727Z,101038.75
2023-05-25T14:28:18.332Z,101050.44
2023-05-25T14:30:54.025Z,101037.91
2023-05-25T14:33:32.908Z,101038.81
2023-05-25T14:36:05.875Z,101033.28
2023-05-25T14:38:41.993Z,101034.75
2023-05-25T14:41:22.800Z,101035.50
2023-05-25T14:43:56.150Z,101039.63
2023-05-25T14:46:26.333Z,101044.00
2023-05-25T14:48:56.321Z,101042.41
2023-05-25T14:51:28.526Z,101048.72
2023-05-25T14:54:01.495Z,101045.84
2023-05-25T14:56:35.005Z,101049.13
2023-05-25T14:59:04.581Z,101042.88
2023-05-25T15:01:41.273Z,101049.97
2023-05-25T15:04:14.951Z,101046.63
2023-05-25T15:07:00.959Z,101042.03
2023-05-25T15:09:33.666Z,101050.97
2023-05-25T15:12:13.278Z,101046.13
2023-05-25T15:14:46.809Z,101048.94
2023-05-25T15:17:17.673Z,101049.59
2023-05-25T15:19:48.812Z,101047.50
2023-05-25T15:22:21.570Z,101051.56
2023-05-25T15:24:54.996Z,101053.41
2023-05-25T15:27:27.221Z,101048.03
2023-05-25T15:29:59.042Z,101046.50
2023-05-25T15:32:38.388Z,101051.44
2023-05-25T15:35:12.113Z,101045.66
2023-05-25T15:37:51.729Z,101050.94
2023-05-25T15:40:29.198Z,101040.84
2023-05-25T15:43:06.398Z,101050.06
2023-05-25T15:45:42.065Z,101050.91
2023-05-25T15:48:18.054Z,101045.28
2023-05-25T15:50:53.083Z,101050.59
2023-05-25T15:53:29.226Z,101041.31
2023-05-25T15:56:00.454Z,101046.19
2023-05-25T15:58:41.716Z,101049.06
2023-05-25T16:01:18.059Z,101044.56
2023-05-25T16:03:54.031Z,101039.28
2023-05-25T16:06:24.729Z,101047.88
2023-05-25T16:09:01.258Z,101051.19
2023-05-25T16:11:34.124Z,101040.97
2023-05-25T16:14:07.547Z,101041.78
2023-05-25T16:16:37.926Z,101039.75
2023-05-25T16:19:13.818Z,101043.00
2023-05-25T16:21:42.032Z,101035.66
2023-05-25T16:24:12.721Z,101044.16
2023-05-25T16:26:43.503Z,101040.53
2023-05-25T16:29:11.899Z,101050.31
2023-05-25T16:31:39.841Z,101043.00
2023-05-25T16:34:07.860Z,101038.94
2023-05-25T16:36:35.942Z,101045.47
2023-05-25T16:39:05.158Z,101042.16
2023-05-25T16:41:33.098Z,101041.78
2023-05-25T16:44:01.615Z,101041.03
2023-05-25T16:46:30.042Z,101038.94
2023-05-25T16:49:02.750Z,101030.41
2023-05-25T16:51:30.518Z,101028.81
2023-05-25T16:54:01.373Z,101030.81
2023-05-25T16:56:34.357Z,101043.41
2023-05-25T16:59:02.114Z,101038.94
2023-05-25T17:01:33.150Z,101034.50
2023-05-25T17:04:04.521Z,101045.88
2023-05-25T17:06:36.677Z,101033.66
2023-05-25T17:09:04.313Z,101038.56
2023-05-25T17:11:31.977Z,101044.63
2023-05-25T17:14:04.886Z,101047.88
2023-05-25T17:16:35.437Z,101046.69
2023-05-25T17:19:08.438Z,101046.31
2023-05-25T17:21:39.770Z,101038.56
2023-05-25T17:24:08.501Z,101051.56
2023-05-25T17:26:36.333Z,101051.56
2023-05-25T17:29:06.159Z,101051.56
2023-05-25T17:31:33.825Z,101054.03
2023-05-25T17:34:07.016Z,101049.59
2023-05-25T17:36:37.869Z,101047.94
2023-05-25T17:39:09.145Z,101059.28
2023-05-25T17:41:37.082Z,101049.16
2023-05-25T17:44:05.940Z,101047.09
2023-05-25T17:46:38.905Z,101046.72
2023-05-25T17:49:06.692Z,101046.75
2023-05-25T17:51:34.430Z,101045.50
2023-05-25T17:54:07.719Z,101044.69
2023-05-25T17:56:38.422Z,101047.91
2023-05-25T17:59:11.947Z,101055.28
2023-05-25T18:01:40.784Z,101052.03
2023-05-25T18:04:12.389Z,101054.88
2023-05-25T18:06:45.764Z,101052.44
2023-05-25T18:09:19.931Z,101056.94
2023-05-25T18:11:56.607Z,101049.63
2023-05-25T18:14:35.333Z,101050.44
2023-05-25T18:17:09.363Z,101051.25
2023-05-25T18:19:42.887Z,101056.56
2023-05-25T18:22:10.545Z,101069.16
2023-05-25T18:24:43.128Z,101068.34
2023-05-25T18:27:13.959Z,101065.47
2023-05-25T18:29:45.217Z,101071.59
2023-05-25T18:32:18.370Z,101077.69
2023-05-25T18:34:49.106Z,101077.25
2023-05-25T18:37:16.861Z,101077.66
2023-05-25T18:39:44.604Z,101074.81
2023-05-25T18:42:17.584Z,101080.09
2023-05-25T18:44:50.935Z,101075.66
2023-05-25T18:47:18.827Z,101068.34
2023-05-25T18:49:47.136Z,101075.25
2023-05-25T18:52:20.983Z,101070.41
2023-05-25T18:54:49.284Z,101078.53
2023-05-25T18:57:17.179Z,101078.53
2023-05-25T18:59:44.782Z,101073.66
2023-05-25T19:02:14.915Z,101078.91
2023-05-25T19:04:47.677Z,101071.22
2023-05-25T19:07:18.205Z,101079.75
2023-05-25T19:09:48.256Z,101074.88
2023-05-25T19:12:16.168Z,101080.53
2023-05-25T19:14:47.083Z,101078.53
2023-05-25T19:17:22.445Z,101083.41
2023-05-25T19:19:50.058Z,101087.50
2023-05-25T19:22:20.947Z,101092.38
2023-05-25T19:24:57.498Z,101087.50
2023-05-25T19:27:28.617Z,101089.16
2023-05-25T19:30:05.650Z,101096.03
2023-05-25T19:32:35.835Z,101093.56
2023-05-25T19:35:06.559Z,101096.44
2023-05-25T19:37:37.996Z,101099.69
2023-05-25T19:40:09.545Z,101104.16
2023-05-25T19:42:40.219Z,101111.06
2023-05-25T19:45:11.008Z,101116.75
2023-05-25T19:47:39.128Z,101115.53
2023-05-25T19:50:07.684Z,101114.72
2023-05-25T19:52:36.444Z,101117.53
2023-05-25T19:55:10.029Z,101114.72
2023-05-25T19:57:40.217Z,101125.28
2023-05-25T20:00:17.574Z,101126.91
2023-05-25T20:02:56.255Z,101126.91
2023-05-25T20:05:26.761Z,101124.84
2023-05-25T20:08:03.818Z,101122.47
2023-05-25T20:10:38.992Z,101127.72
2023-05-25T20:13:12.593Z,101127.72
2023-05-25T20:15:45.358Z,101127.31
2023-05-25T20:18:16.482Z,101130.16
2023-05-25T20:20:49.479Z,101128.53
2023-05-25T20:23:17.219Z,101127.31
2023-05-25T20:25:50.143Z,101134.22
2023-05-25T20:28:20.988Z,101130.59
2023-05-25T20:30:50.964Z,101131.00
2023-05-25T20:33:25.678Z,101130.59
2023-05-25T20:36:04.876Z,101130.19
2023-05-25T20:38:34.655Z,101132.63
2023-05-25T20:41:02.760Z,101144.81
2023-05-25T20:43:30.681Z,101133.84
2023-05-25T20:46:24.016Z,101140.75
2023-05-25T20:48:53.525Z,101148.03
2023-05-25T20:51:24.358Z,101143.59
2023-05-25T20:54:01.249Z,101132.25
2023-05-25T20:56:32.167Z,101137.50
2023-05-25T20:59:02.278Z,101129.38
2023-05-25T21:01:35.819Z,101123.69
2023-05-25T21:04:04.317Z,101126.97
2023-05-25T21:06:32.212Z,101132.25
2023-05-25T21:09:02.451Z,101133.47
2023-05-25T21:11:33.654Z,101135.09
2023-05-25T21:14:09.997Z,101138.34
2023-05-25T21:16:37.653Z,101136.34
2023-05-25T21:19:05.780Z,101133.88
2023-05-25T21:21:34.587Z,101135.09
2023-05-25T21:24:07.694Z,101126.56
2023-05-25T21:26:37.654Z,101130.63
2023-05-25T21:29:05.425Z,101129.00
2023-05-25T21:31:37.608Z,101132.66
2023-05-25T21:34:08.145Z,101136.31
2023-05-25T21:36:36.438Z,101139.16
2023-05-25T21:39:06.896Z,101142.00
2023-05-25T21:41:39.547Z,101131.44
2023-05-25T21:44:10.224Z,101133.88
2023-05-25T21:46:39.234Z,101137.50
2023-05-25T21:49:07.719Z,101138.34
2023-05-25T21:51:36.544Z,101134.69
2023-05-25T21:54:16.713Z,101144.84
2023-05-25T21:56:44.528Z,101150.13
2023-05-25T21:59:12.400Z,101140.34
2023-05-25T22:01:40.151Z,101140.38
2023-05-25T22:04:10.498Z,101142.00
2023-05-25T22:06:48.560Z,101136.72
2023-05-25T22:09:18.485Z,101148.91
2023-05-25T22:11:54.322Z,101150.94
2023-05-25T22:14:26.832Z,101151.34
2023-05-25T22:16:59.633Z,101148.91
2023-05-25T22:19:29.528Z,101157.44
2023-05-25T22:21:59.946Z,101155.38
2023-05-25T22:24:37.997Z,101155.38
2023-05-25T22:27:09.214Z,101148.09
2023-05-25T22:29:39.307Z,101140.00
2023-05-25T22:32:07.050Z,101139.59
2023-05-25T22:34:35.042Z,101138.75
2023-05-25T22:37:04.783Z,101134.31
2023-05-25T22:39:32.561Z,101137.16
2023-05-25T22:42:02.304Z,101137.97
2023-05-25T22:44:29.868Z,101136.75
2023-05-25T22:47:06.140Z,101132.66
2023-05-25T22:49:41.750Z,101128.63
2023-05-25T22:52:14.347Z,101137.16
2023-05-25T22:54:44.409Z,101127.00
2023-05-25T22:57:12.026Z,101124.16
2023-05-25T22:59:42.389Z,101120.09
2023-05-25T23:02:12.657Z,101127.81
2023-05-25T23:04:40.709Z,101127.81
2023-05-25T23:07:14.283Z,101127.03
2023-05-25T23:09:42.629Z,101121.75
2023-05-25T23:12:18.459Z,101119.31
2023-05-25T23:14:46.324Z,101125.81
2023-05-25T23:17:16.352Z,101124.97
2023-05-25T23:19:44.855Z,101122.16
2023-05-25T23:22:17.816Z,101127.03
2023-05-25T23:24:45.869Z,101121.34
2023-05-25T23:27:19.478Z,101123.78
2023-05-25T23:29:50.793Z,101122.16
2023-05-25T23:32:21.132Z,101125.41
2023-05-25T23:34:51.240Z,101127.03
2023-05-25T23:37:25.318Z,101124.19
2023-05-25T23:39:55.516Z,101123.38
2023-05-25T23:42:37.284Z,101118.09
2023-05-25T23:45:05.740Z,101125.81
2023-05-25T23:47:36.291Z,101112.81
2023-05-25T23:50:12.045Z,101119.31
2023-05-25T23:52:47.525Z,101116.47
2023-05-25T23:55:18.356Z,101116.47
2023-05-25T23:57:51.211Z,101121.34
